createdAt,value
2019-05-25T00:00:01.588Z,2.40
2019-05-25T00:01:01.611Z,3.20
2019-05-25T00:02:01.788Z,2.30
2019-05-25T00:03:01.643Z,2.00
2019-05-25T00:04:01.784Z,3.10
2019-05-25T00:05:01.593Z,3.30
2019-05-25T00:06:01.574Z,2.10
2019-05-25T00:07:01.568Z,2.40
2019-05-25T00:08:01.572Z,2.70
2019-05-25T00:09:01.579Z,2.10
2019-05-25T00:10:01.575Z,2.00
2019-05-25T00:11:01.570Z,3.10
2019-05-25T00:12:01.586Z,2.20
2019-05-25T00:13:01.760Z,2.20
2019-05-25T00:14:01.753Z,2.30
2019-05-25T00:15:01.613Z,2.10
2019-05-25T00:16:01.555Z,2.90
2019-05-25T00:17:01.538Z,2.20
2019-05-25T00:18:01.544Z,2.40
2019-05-25T00:19:01.547Z,2.50
2019-05-25T00:20:01.768Z,2.50
2019-05-25T00:21:01.537Z,2.40
2019-05-25T00:22:01.729Z,2.50
2019-05-25T00:23:01.518Z,2.20
2019-05-25T00:24:11.648Z,2.20
2019-05-25T00:25:01.528Z,4.70
2019-05-25T00:26:01.521Z,2.40
2019-05-25T00:27:01.507Z,2.60
2019-05-25T00:28:01.704Z,2.80
2019-05-25T00:29:01.528Z,2.50
2019-05-25T00:30:01.510Z,2.80
2019-05-25T00:31:01.504Z,2.10
2019-05-25T00:32:01.499Z,2.30
2019-05-25T00:33:01.496Z,2.70
2019-05-25T00:34:01.687Z,3.20
2019-05-25T00:35:01.492Z,2.50
2019-05-25T00:36:01.486Z,2.20
2019-05-25T00:37:01.472Z,2.60
2019-05-25T00:38:01.688Z,2.60
2019-05-25T00:39:01.477Z,4.40
2019-05-25T00:40:01.467Z,3.10
2019-05-25T00:41:01.459Z,3.30
2019-05-25T00:42:01.456Z,4.00
2019-05-25T00:43:01.457Z,2.90
2019-05-25T00:44:01.481Z,3.70
2019-05-25T00:45:01.449Z,3.50
2019-05-25T00:46:01.447Z,3.50
2019-05-25T00:47:01.464Z,4.10
2019-05-25T00:48:01.442Z,3.40
2019-05-25T00:49:01.447Z,4.20
2019-05-25T00:50:01.451Z,3.40
2019-05-25T00:51:01.419Z,4.20
2019-05-25T00:52:01.423Z,3.50
2019-05-25T00:53:01.415Z,3.60
2019-05-25T00:54:01.412Z,3.30
2019-05-25T00:55:01.419Z,4.10
2019-05-25T00:56:01.401Z,3.90
2019-05-25T00:57:01.404Z,3.40
2019-05-25T00:58:01.413Z,3.20
2019-05-25T00:59:01.397Z,3.60
2019-05-25T01:00:01.614Z,3.40
2019-05-25T01:01:01.398Z,4.00
2019-05-25T01:02:01.396Z,4.60
2019-05-25T01:03:01.397Z,6.30
2019-05-25T01:04:01.376Z,3.10
2019-05-25T01:05:01.380Z,3.20
2019-05-25T01:06:01.382Z,3.80
2019-05-25T01:07:01.364Z,3.50
2019-05-25T01:08:01.365Z,3.50
2019-05-25T01:09:01.368Z,3.30
2019-05-25T01:10:01.660Z,3.20
2019-05-25T01:11:01.357Z,3.00
2019-05-25T01:12:01.367Z,2.90
2019-05-25T01:13:01.362Z,3.20
2019-05-25T01:14:01.351Z,3.50
2019-05-25T01:15:01.350Z,3.30
2019-05-25T01:16:01.333Z,3.90
2019-05-25T01:17:01.370Z,2.90
2019-05-25T01:18:01.341Z,3.30
2019-05-25T01:19:01.332Z,5.10
2019-05-25T01:20:01.340Z,3.60
2019-05-25T01:21:01.537Z,3.60
2019-05-25T01:22:01.306Z,4.10
2019-05-25T01:23:01.306Z,3.60
2019-05-25T01:24:01.318Z,3.60
2019-05-25T01:25:01.529Z,2.90
2019-05-25T01:26:01.296Z,2.80
2019-05-25T01:27:01.293Z,2.50
2019-05-25T01:28:01.496Z,2.00
2019-05-25T01:29:01.286Z,2.30
2019-05-25T01:30:01.278Z,4.90
2019-05-25T01:31:01.487Z,3.40
2019-05-25T01:32:01.473Z,2.10
2019-05-25T01:33:01.294Z,2.10
2019-05-25T01:34:01.282Z,3.00
2019-05-25T01:35:01.268Z,2.30
2019-05-25T01:36:01.259Z,2.50
2019-05-25T01:37:01.256Z,2.40
2019-05-25T01:38:01.270Z,2.20
2019-05-25T01:39:01.266Z,2.30
2019-05-25T01:40:01.263Z,2.50
2019-05-25T01:41:01.252Z,2.90
2019-05-25T01:42:01.233Z,2.40
2019-05-25T01:43:01.432Z,1.80
2019-05-25T01:44:01.432Z,2.40
2019-05-25T01:45:01.243Z,2.10
2019-05-25T01:46:01.218Z,2.00
2019-05-25T01:47:01.211Z,2.30
2019-05-25T01:48:01.210Z,2.60
2019-05-25T01:49:01.220Z,2.30
2019-05-25T01:50:01.211Z,2.20
2019-05-25T01:51:01.209Z,2.70
2019-05-25T01:52:01.207Z,2.20
2019-05-25T01:53:01.208Z,1.90
2019-05-25T01:54:01.200Z,2.30
2019-05-25T01:55:01.188Z,2.30
2019-05-25T01:56:01.192Z,2.40
2019-05-25T01:57:01.200Z,2.60
2019-05-25T01:58:01.183Z,2.50
2019-05-25T01:59:01.167Z,2.80
2019-05-25T02:00:01.176Z,3.00
2019-05-25T02:01:01.176Z,2.60
2019-05-25T02:02:01.188Z,3.20
2019-05-25T02:03:01.179Z,2.60
2019-05-25T02:04:01.161Z,3.60
2019-05-25T02:05:01.157Z,3.10
2019-05-25T02:06:01.138Z,3.80
2019-05-25T02:07:01.158Z,3.80
2019-05-25T02:08:01.148Z,5.00
2019-05-25T02:09:01.150Z,4.90
2019-05-25T02:10:01.142Z,5.30
2019-05-25T02:11:01.147Z,3.90
2019-05-25T02:12:01.121Z,4.00
2019-05-25T02:13:01.123Z,4.30
2019-05-25T02:14:01.141Z,3.90
2019-05-25T02:15:01.126Z,3.90
2019-05-25T02:16:01.100Z,4.90
2019-05-25T02:17:01.100Z,4.80
2019-05-25T02:18:01.112Z,5.00
2019-05-25T02:19:01.089Z,4.20
2019-05-25T02:20:01.089Z,4.30
2019-05-25T02:21:01.093Z,5.40
2019-05-25T02:22:01.103Z,4.60
2019-05-25T02:23:01.073Z,4.40
2019-05-25T02:24:01.117Z,4.20
2019-05-25T02:25:16.261Z,5.30
2019-05-25T02:26:01.055Z,5.50
2019-05-25T02:27:01.068Z,6.90
2019-05-25T02:28:01.064Z,6.90
2019-05-25T02:29:01.043Z,7.00
2019-05-25T02:30:01.061Z,8.00
2019-05-25T02:31:01.048Z,6.70
2019-05-25T02:32:01.046Z,6.70
2019-05-25T02:33:01.041Z,7.30
2019-05-25T02:34:01.069Z,7.10
2019-05-25T02:35:01.034Z,7.00
2019-05-25T02:36:01.039Z,6.70
2019-05-25T02:37:01.029Z,8.80
2019-05-25T02:38:01.004Z,6.90
2019-05-25T02:39:01.206Z,7.50
2019-05-25T02:40:01.005Z,9.30
2019-05-25T02:41:00.996Z,7.90
2019-05-25T02:42:01.196Z,7.80
2019-05-25T02:43:00.987Z,8.10
2019-05-25T02:44:00.980Z,7.50
2019-05-25T02:45:00.987Z,8.30
2019-05-25T02:46:01.194Z,8.70
2019-05-25T02:47:00.982Z,8.10
2019-05-25T02:48:00.981Z,7.70
2019-05-25T02:49:00.966Z,8.00
2019-05-25T02:50:00.973Z,10.40
2019-05-25T02:51:00.975Z,8.20
2019-05-25T02:52:00.944Z,8.10
2019-05-25T02:53:00.955Z,7.80
2019-05-25T02:54:00.942Z,8.10
2019-05-25T02:55:00.937Z,7.80
2019-05-25T02:56:00.941Z,6.80
2019-05-25T02:57:00.940Z,7.90
2019-05-25T02:58:00.949Z,8.10
2019-05-25T02:59:00.918Z,7.90
2019-05-25T03:00:00.936Z,7.90
2019-05-25T03:01:00.922Z,8.00
2019-05-25T03:02:00.914Z,7.70
2019-05-25T03:03:00.899Z,7.60
2019-05-25T03:04:00.913Z,8.60
2019-05-25T03:05:00.897Z,7.70
2019-05-25T03:06:00.886Z,7.40
2019-05-25T03:07:00.886Z,9.00
2019-05-25T03:08:00.875Z,9.40
2019-05-25T03:09:00.872Z,8.10
2019-05-25T03:10:00.885Z,8.10
2019-05-25T03:11:00.866Z,8.10
2019-05-25T03:12:00.860Z,8.40
2019-05-25T03:13:00.875Z,9.60
2019-05-25T03:14:00.860Z,8.40
2019-05-25T03:15:00.931Z,8.60
2019-05-25T03:16:00.847Z,10.30
2019-05-25T03:17:00.847Z,8.80
2019-05-25T03:18:00.838Z,8.80
2019-05-25T03:19:00.831Z,8.90
2019-05-25T03:20:00.830Z,9.10
2019-05-25T03:21:00.835Z,9.10
2019-05-25T03:22:00.829Z,9.00
2019-05-25T03:23:00.839Z,9.20
2019-05-25T03:24:00.815Z,10.30
2019-05-25T03:25:00.808Z,10.20
2019-05-25T03:26:00.811Z,9.40
2019-05-25T03:27:00.805Z,10.40
2019-05-25T03:28:00.933Z,9.70
2019-05-25T03:29:00.805Z,11.10
2019-05-25T03:30:00.795Z,10.40
2019-05-25T03:31:00.793Z,10.20
2019-05-25T03:32:00.797Z,12.10
2019-05-25T03:33:00.785Z,11.60
2019-05-25T03:34:00.772Z,11.60
2019-05-25T03:35:00.773Z,11.10
2019-05-25T03:36:00.767Z,12.00
2019-05-25T03:37:00.776Z,13.80
2019-05-25T03:38:00.751Z,10.60
2019-05-25T03:39:00.752Z,11.10
2019-05-25T03:40:00.752Z,11.60
2019-05-25T03:41:00.954Z,11.20
2019-05-25T03:42:00.744Z,12.30
2019-05-25T03:43:00.754Z,12.70
2019-05-25T03:44:00.751Z,11.40
2019-05-25T03:45:00.735Z,12.30
2019-05-25T03:46:00.725Z,11.20
2019-05-25T03:47:00.707Z,11.60
2019-05-25T03:48:00.711Z,11.80
2019-05-25T03:49:00.708Z,11.20
2019-05-25T03:50:00.705Z,12.90
2019-05-25T03:51:00.691Z,11.10
2019-05-25T03:52:00.687Z,11.90
2019-05-25T03:53:00.691Z,12.30
2019-05-25T03:54:00.688Z,11.70
2019-05-25T03:55:00.696Z,11.60
2019-05-25T03:56:06.013Z,13.40
2019-05-25T03:57:00.667Z,11.50
2019-05-25T03:58:00.674Z,11.50
2019-05-25T03:59:00.717Z,11.50
2019-05-25T04:00:00.670Z,12.50
2019-05-25T04:01:00.650Z,11.80
2019-05-25T04:02:00.654Z,11.40
2019-05-25T04:03:00.669Z,11.40
2019-05-25T04:04:00.657Z,11.60
2019-05-25T04:05:00.634Z,11.90
2019-05-25T04:06:00.858Z,13.40
2019-05-25T04:07:00.823Z,11.40
2019-05-25T04:08:00.614Z,11.00
2019-05-25T04:09:00.610Z,11.40
2019-05-25T04:10:00.621Z,12.10
2019-05-25T04:11:00.635Z,11.50
2019-05-25T04:12:00.616Z,12.00
2019-05-25T04:13:00.806Z,12.80
2019-05-25T04:14:00.797Z,11.10
2019-05-25T04:15:00.790Z,11.30
2019-05-25T04:16:00.811Z,11.80
2019-05-25T04:17:00.781Z,11.90
2019-05-25T04:18:00.815Z,11.10
2019-05-25T04:19:00.783Z,11.30
2019-05-25T04:20:00.766Z,11.90
2019-05-25T04:21:00.574Z,11.70
2019-05-25T04:22:00.572Z,11.90
2019-05-25T04:23:00.769Z,12.10
2019-05-25T04:24:00.573Z,11.80
2019-05-25T04:25:00.545Z,10.90
2019-05-25T04:26:00.551Z,10.70
2019-05-25T04:27:00.540Z,11.10
2019-05-25T04:28:00.533Z,10.60
2019-05-25T04:29:00.542Z,10.90
2019-05-25T04:30:00.539Z,10.70
2019-05-25T04:31:00.538Z,9.70
2019-05-25T04:32:00.520Z,8.00
2019-05-25T04:33:00.535Z,9.10
2019-05-25T04:34:00.507Z,9.20
2019-05-25T04:35:00.715Z,9.40
2019-05-25T04:36:00.499Z,8.60
2019-05-25T04:37:00.515Z,8.00
2019-05-25T04:38:00.707Z,8.30
2019-05-25T04:39:00.496Z,7.70
2019-05-25T04:40:00.482Z,8.00
2019-05-25T04:41:00.501Z,7.20
2019-05-25T04:42:00.497Z,8.70
2019-05-25T04:43:00.485Z,8.40
2019-05-25T04:44:00.697Z,8.60
2019-05-25T04:45:00.467Z,9.20
2019-05-25T04:46:00.478Z,10.10
2019-05-25T04:47:00.468Z,10.80
2019-05-25T04:48:00.684Z,10.70
2019-05-25T04:49:00.676Z,11.40
2019-05-25T04:50:00.455Z,11.40
2019-05-25T04:51:00.451Z,11.40
2019-05-25T04:52:00.450Z,12.00
2019-05-25T04:53:00.428Z,12.10
2019-05-25T04:54:00.422Z,13.10
2019-05-25T04:55:00.436Z,12.10
2019-05-25T04:56:00.624Z,12.90
2019-05-25T04:57:00.420Z,12.90
2019-05-25T04:58:00.421Z,14.00
2019-05-25T04:59:00.421Z,13.90
2019-05-25T05:00:00.403Z,16.00
2019-05-25T05:01:00.437Z,14.90
2019-05-25T05:02:00.484Z,16.40
2019-05-25T05:03:00.397Z,15.90
2019-05-25T05:04:00.387Z,14.60
2019-05-25T05:05:00.593Z,15.80
2019-05-25T05:06:00.382Z,14.70
2019-05-25T05:07:00.386Z,14.30
2019-05-25T05:08:00.383Z,15.20
2019-05-25T05:09:00.375Z,16.00
2019-05-25T05:10:03.035Z,15.90
2019-05-25T05:11:00.360Z,15.20
2019-05-25T05:12:00.569Z,15.30
2019-05-25T05:13:00.366Z,14.50
2019-05-25T05:14:00.354Z,15.20
2019-05-25T05:15:00.341Z,15.10
2019-05-25T05:16:00.340Z,15.80
2019-05-25T05:17:00.329Z,16.00
2019-05-25T05:18:00.328Z,16.10
2019-05-25T05:19:00.335Z,16.00
2019-05-25T05:20:00.318Z,15.10
2019-05-25T05:21:00.324Z,15.40
2019-05-25T05:22:00.314Z,15.10
2019-05-25T05:23:00.315Z,14.90
2019-05-25T05:24:00.297Z,14.80
2019-05-25T05:25:00.293Z,15.60
2019-05-25T05:26:00.306Z,15.40
2019-05-25T05:27:00.297Z,16.50
2019-05-25T05:28:00.288Z,16.30
2019-05-25T05:29:00.496Z,14.70
2019-05-25T05:30:00.289Z,15.60
2019-05-25T05:31:00.268Z,15.20
2019-05-25T05:32:00.292Z,14.70
2019-05-25T05:33:00.468Z,15.30
2019-05-25T05:34:00.300Z,15.00
2019-05-25T05:35:00.257Z,15.80
2019-05-25T05:36:00.256Z,15.10
2019-05-25T05:37:00.475Z,15.50
2019-05-25T05:38:00.253Z,15.00
2019-05-25T05:39:00.459Z,13.00
2019-05-25T05:40:00.232Z,14.50
2019-05-25T05:41:00.264Z,13.70
2019-05-25T05:42:00.238Z,15.10
2019-05-25T05:43:00.243Z,14.50
2019-05-25T05:44:00.215Z,13.00
2019-05-25T05:45:00.433Z,14.00
2019-05-25T05:46:00.231Z,15.80
2019-05-25T05:47:00.206Z,15.20
2019-05-25T05:48:00.201Z,15.70
2019-05-25T05:49:00.200Z,13.60
2019-05-25T05:50:00.196Z,13.60
2019-05-25T05:51:00.192Z,13.20
2019-05-25T05:52:00.184Z,13.00
2019-05-25T05:53:00.213Z,12.20
2019-05-25T05:54:00.179Z,12.50
2019-05-25T05:55:00.173Z,13.70
2019-05-25T05:56:00.196Z,12.60
2019-05-25T05:57:11.895Z,12.60
2019-05-25T05:58:00.166Z,12.20
2019-05-25T05:59:00.168Z,12.70
2019-05-25T06:00:00.373Z,13.80
2019-05-25T06:01:00.151Z,13.50
2019-05-25T06:02:00.158Z,11.70
2019-05-25T06:03:00.160Z,11.50
2019-05-25T06:04:00.346Z,12.60
2019-05-25T06:05:00.361Z,12.10
2019-05-25T06:06:00.368Z,12.30
2019-05-25T06:07:00.143Z,11.60
2019-05-25T06:08:00.127Z,12.60
2019-05-25T06:09:00.133Z,12.10
2019-05-25T06:10:00.193Z,12.20
2019-05-25T06:11:00.144Z,12.60
2019-05-25T06:12:00.109Z,12.60
2019-05-25T06:13:00.109Z,10.80
2019-05-25T06:14:00.125Z,10.60
2019-05-25T06:15:00.115Z,10.40
2019-05-25T06:16:00.102Z,11.50
2019-05-25T06:17:00.106Z,10.70
2019-05-25T06:18:00.105Z,11.80
2019-05-25T06:19:00.102Z,12.50
2019-05-25T06:20:00.084Z,10.90
2019-05-25T06:21:00.096Z,10.80
2019-05-25T06:22:00.089Z,11.80
2019-05-25T06:23:00.075Z,10.30
2019-05-25T06:24:00.079Z,10.90
2019-05-25T06:25:00.283Z,9.90
2019-05-25T06:26:00.291Z,9.80
2019-05-25T06:27:00.270Z,10.80
2019-05-25T06:28:00.073Z,10.80
2019-05-25T06:29:00.277Z,10.50
2019-05-25T06:30:00.059Z,12.00
2019-05-25T06:31:00.058Z,10.10
2019-05-25T06:32:00.281Z,11.30
2019-05-25T06:33:00.074Z,11.20
2019-05-25T06:34:00.051Z,11.50
2019-05-25T06:35:00.071Z,9.70
2019-05-25T06:36:00.054Z,9.30
2019-05-25T06:37:00.234Z,10.00
2019-05-25T06:38:00.032Z,10.60
2019-05-25T06:39:00.038Z,12.30
2019-05-25T06:40:00.231Z,8.50
2019-05-25T06:41:00.083Z,8.90
2019-05-25T06:42:00.242Z,9.40
2019-05-25T06:43:00.013Z,8.40
2019-05-25T06:44:00.019Z,8.50
2019-05-25T06:45:00.034Z,11.00
2019-05-25T06:46:00.010Z,8.30
2019-05-25T06:47:00.011Z,9.50
2019-05-25T06:47:59.999Z,9.70
2019-05-25T06:49:00.010Z,9.70
2019-05-25T06:49:59.991Z,10.00
2019-05-25T06:50:59.988Z,7.80
2019-05-25T06:51:59.994Z,6.90
2019-05-25T06:52:59.990Z,8.50
2019-05-25T06:54:00.040Z,8.20
2019-05-25T06:54:59.995Z,10.80
2019-05-25T06:55:59.977Z,10.70
2019-05-25T06:56:59.985Z,7.70
2019-05-25T06:57:59.974Z,7.90
2019-05-25T06:58:59.979Z,8.20
2019-05-25T06:59:59.978Z,8.20
2019-05-25T07:00:59.979Z,10.10
2019-05-25T07:02:00.167Z,8.00
2019-05-25T07:03:00.162Z,8.30
2019-05-25T07:03:59.965Z,9.20
2019-05-25T07:05:00.167Z,9.00
2019-05-25T07:05:59.954Z,8.70
2019-05-25T07:06:59.949Z,8.10
2019-05-25T07:07:59.947Z,8.40
2019-05-25T07:08:59.940Z,7.30
2019-05-25T07:09:59.937Z,8.10
2019-05-25T07:10:59.946Z,8.00
2019-05-25T07:11:59.944Z,7.80
2019-05-25T07:12:59.942Z,8.20
2019-05-25T07:13:59.959Z,9.30
2019-05-25T07:14:59.928Z,7.70
2019-05-25T07:15:59.940Z,8.20
2019-05-25T07:16:59.915Z,8.30
2019-05-25T07:17:59.925Z,9.20
2019-05-25T07:18:59.919Z,10.10
2019-05-25T07:19:59.905Z,9.90
2019-05-25T07:20:59.900Z,9.40
2019-05-25T07:21:59.905Z,9.50
2019-05-25T07:22:59.916Z,9.70
2019-05-25T07:23:59.914Z,9.60
2019-05-25T07:24:59.891Z,9.90
2019-05-25T07:25:59.887Z,9.80
2019-05-25T07:26:59.918Z,9.40
2019-05-25T07:28:00.498Z,9.30
2019-05-25T07:28:59.893Z,9.50
2019-05-25T07:29:59.889Z,9.60
2019-05-25T07:30:59.884Z,10.60
2019-05-25T07:31:59.889Z,10.60
2019-05-25T07:32:59.887Z,11.40
2019-05-25T07:33:59.883Z,13.70
2019-05-25T07:34:59.866Z,10.00
2019-05-25T07:35:59.895Z,11.10
2019-05-25T07:36:59.854Z,12.40
2019-05-25T07:37:59.865Z,12.30
2019-05-25T07:38:59.852Z,11.20
2019-05-25T07:39:59.843Z,10.50
2019-05-25T07:40:59.849Z,10.60
2019-05-25T07:41:59.845Z,12.50
2019-05-25T07:43:00.051Z,10.90
2019-05-25T07:43:59.840Z,11.90
2019-05-25T07:44:59.839Z,12.30
2019-05-25T07:45:59.834Z,12.10
2019-05-25T07:46:59.822Z,17.50
2019-05-25T07:47:59.843Z,20.90
2019-05-25T07:48:59.846Z,19.90
2019-05-25T07:49:59.823Z,19.40
2019-05-25T07:50:59.828Z,21.60
2019-05-25T07:52:02.673Z,20.50
2019-05-25T07:52:59.809Z,23.50
2019-05-25T07:53:59.807Z,23.00
2019-05-25T07:54:59.803Z,24.70
2019-05-25T07:55:59.808Z,28.00
2019-05-25T07:56:59.807Z,28.20
2019-05-25T07:58:15.733Z,25.40
2019-05-25T07:58:59.796Z,26.10
2019-05-25T07:59:59.783Z,24.90
2019-05-25T08:00:59.985Z,24.90
2019-05-25T08:01:59.779Z,25.60
2019-05-25T08:02:59.771Z,24.70
2019-05-25T08:03:59.770Z,23.50
2019-05-25T08:04:59.775Z,21.50
2019-05-25T08:05:59.765Z,20.30
2019-05-25T08:06:59.766Z,22.40
2019-05-25T08:07:59.786Z,22.30
2019-05-25T08:08:59.773Z,21.50
2019-05-25T08:09:59.752Z,20.20
2019-05-25T08:10:59.758Z,23.00
2019-05-25T08:11:59.758Z,25.40
2019-05-25T08:12:59.755Z,25.90
2019-05-25T08:13:59.739Z,26.60
2019-05-25T08:14:59.750Z,27.00
2019-05-25T08:15:59.750Z,28.70
2019-05-25T08:16:59.937Z,29.60
2019-05-25T08:17:59.739Z,32.50
2019-05-25T08:18:59.731Z,30.30
2019-05-25T08:19:59.722Z,29.20
2019-05-25T08:20:59.742Z,27.30
2019-05-25T08:21:59.738Z,27.50
2019-05-25T08:22:59.741Z,27.80
2019-05-25T08:23:59.723Z,27.90
2019-05-25T08:24:59.718Z,27.90
2019-05-25T08:25:59.712Z,27.40
2019-05-25T08:26:59.729Z,25.40
2019-05-25T08:27:59.710Z,28.00
2019-05-25T08:28:59.698Z,25.70
2019-05-25T08:29:59.693Z,25.50
2019-05-25T08:31:01.466Z,28.90
2019-05-25T08:31:59.689Z,31.40
2019-05-25T08:32:59.697Z,27.80
2019-05-25T08:33:59.681Z,25.80
2019-05-25T08:34:59.676Z,29.10
2019-05-25T08:35:59.678Z,27.60
2019-05-25T08:36:59.683Z,27.20
2019-05-25T08:37:59.681Z,29.00
2019-05-25T08:38:59.678Z,30.50
2019-05-25T08:39:59.678Z,29.80
2019-05-25T08:40:59.676Z,29.70
2019-05-25T08:41:59.672Z,28.10
2019-05-25T08:42:59.669Z,31.30
2019-05-25T08:43:59.652Z,28.90
2019-05-25T08:44:59.649Z,28.30
2019-05-25T08:45:59.666Z,26.00
2019-05-25T08:46:59.661Z,27.60
2019-05-25T08:47:59.657Z,26.50
2019-05-25T08:48:59.651Z,25.20
2019-05-25T08:49:59.651Z,24.10
2019-05-25T08:50:59.868Z,26.90
2019-05-25T08:51:59.636Z,21.50
2019-05-25T08:52:59.629Z,20.60
2019-05-25T08:53:59.634Z,23.90
2019-05-25T08:54:59.630Z,21.20
2019-05-25T08:55:59.641Z,21.10
2019-05-25T08:56:59.622Z,21.20
2019-05-25T08:57:59.634Z,19.70
2019-05-25T08:58:59.619Z,17.70
2019-05-25T08:59:59.622Z,16.80
2019-05-25T09:00:59.624Z,18.10
2019-05-25T09:01:59.626Z,18.40
2019-05-25T09:02:59.607Z,17.90
2019-05-25T09:03:59.614Z,18.80
2019-05-25T09:04:59.617Z,18.20
2019-05-25T09:05:59.601Z,19.10
2019-05-25T09:06:59.605Z,18.20
2019-05-25T09:07:59.599Z,18.90
2019-05-25T09:08:59.604Z,18.00
2019-05-25T09:09:59.595Z,17.60
2019-05-25T09:10:59.586Z,16.20
2019-05-25T09:11:59.595Z,15.50
2019-05-25T09:12:59.781Z,15.80
2019-05-25T09:13:59.596Z,15.10
2019-05-25T09:14:59.588Z,14.20
2019-05-25T09:15:59.571Z,16.60
2019-05-25T09:16:59.571Z,16.50
2019-05-25T09:17:59.583Z,15.90
2019-05-25T09:18:59.568Z,16.30
2019-05-25T09:19:59.576Z,16.00
2019-05-25T09:20:59.764Z,16.50
2019-05-25T09:22:03.091Z,15.00
2019-05-25T09:22:59.572Z,16.00
2019-05-25T09:23:59.804Z,15.40
2019-05-25T09:24:59.579Z,15.80
2019-05-25T09:25:59.751Z,15.30
2019-05-25T09:26:59.558Z,14.10
2019-05-25T09:27:59.746Z,14.10
2019-05-25T09:29:04.387Z,15.40
2019-05-25T09:29:59.539Z,16.70
2019-05-25T09:30:59.739Z,16.70
2019-05-25T09:31:59.540Z,15.70
2019-05-25T09:32:59.544Z,16.20
2019-05-25T09:33:59.753Z,14.10
2019-05-25T09:34:59.734Z,13.80
2019-05-25T09:35:59.519Z,14.30
2019-05-25T09:36:59.531Z,13.80
2019-05-25T09:37:59.729Z,14.70
2019-05-25T09:38:59.722Z,14.20
2019-05-25T09:39:59.524Z,15.10
2019-05-25T09:40:59.514Z,14.90
2019-05-25T09:41:59.508Z,15.20
2019-05-25T09:42:59.504Z,16.50
2019-05-25T09:43:59.525Z,15.00
2019-05-25T09:44:59.517Z,15.50
2019-05-25T09:46:02.721Z,15.20
2019-05-25T09:46:59.505Z,15.10
2019-05-25T09:47:59.496Z,15.80
2019-05-25T09:48:59.491Z,16.60
2019-05-25T09:49:59.490Z,14.90
2019-05-25T09:50:59.501Z,15.60
2019-05-25T09:51:59.504Z,15.70
2019-05-25T09:52:59.489Z,14.50
2019-05-25T09:53:59.479Z,14.00
2019-05-25T09:54:59.546Z,15.90
2019-05-25T09:55:59.488Z,15.30
2019-05-25T09:56:59.483Z,14.40
2019-05-25T09:57:59.474Z,15.10
2019-05-25T09:58:59.475Z,14.70
2019-05-25T09:59:59.481Z,15.50
2019-05-25T10:00:59.486Z,14.30
2019-05-25T10:01:59.512Z,14.10
2019-05-25T10:02:59.485Z,14.20
2019-05-25T10:03:59.466Z,14.70
2019-05-25T10:04:59.464Z,14.70
2019-05-25T10:05:59.469Z,13.80
2019-05-25T10:06:59.461Z,13.40
2019-05-25T10:07:59.451Z,12.90
2019-05-25T10:08:59.463Z,12.50
2019-05-25T10:09:59.470Z,13.00
2019-05-25T10:10:59.450Z,14.00
2019-05-25T10:11:59.463Z,14.10
2019-05-25T10:12:59.440Z,13.50
2019-05-25T10:13:59.436Z,14.50
2019-05-25T10:14:59.436Z,15.40
2019-05-25T10:15:59.448Z,14.50
2019-05-25T10:16:59.439Z,14.80
2019-05-25T10:17:59.442Z,14.60
2019-05-25T10:18:59.441Z,14.70
2019-05-25T10:19:59.431Z,14.00
2019-05-25T10:20:59.426Z,14.50
2019-05-25T10:21:59.781Z,14.30
2019-05-25T10:22:59.443Z,14.40
2019-05-25T10:23:59.620Z,12.70
2019-05-25T10:24:59.436Z,14.00
2019-05-25T10:25:59.620Z,13.80
2019-05-25T10:26:59.418Z,13.60
2019-05-25T10:27:59.422Z,14.30
2019-05-25T10:28:59.421Z,13.60
2019-05-25T10:29:59.403Z,12.90
2019-05-25T10:30:59.399Z,13.50
2019-05-25T10:31:59.411Z,13.90
2019-05-25T10:32:59.420Z,12.90
2019-05-25T10:33:59.400Z,12.30
2019-05-25T10:34:59.607Z,11.90
2019-05-25T10:35:59.405Z,12.50
2019-05-25T10:36:59.444Z,12.60
2019-05-25T10:37:59.433Z,12.10
2019-05-25T10:38:59.397Z,12.20
2019-05-25T10:39:59.386Z,12.40
2019-05-25T10:40:59.388Z,13.50
2019-05-25T10:41:59.385Z,12.90
2019-05-25T10:42:59.375Z,12.40
2019-05-25T10:43:59.373Z,13.80
2019-05-25T10:44:59.390Z,13.60
2019-05-25T10:45:59.371Z,13.60
2019-05-25T10:46:59.390Z,13.40
2019-05-25T10:47:59.381Z,13.80
2019-05-25T10:48:59.380Z,13.50
2019-05-25T10:49:59.362Z,13.40
2019-05-25T10:50:59.367Z,13.20
2019-05-25T10:51:59.360Z,13.30
2019-05-25T10:52:59.359Z,13.20
2019-05-25T10:53:59.368Z,13.60
2019-05-25T10:54:59.357Z,13.60
2019-05-25T10:55:59.378Z,14.10
2019-05-25T10:56:59.358Z,13.90
2019-05-25T10:57:59.360Z,13.20
2019-05-25T10:58:59.351Z,13.40
2019-05-25T10:59:59.344Z,14.10
2019-05-25T11:00:59.350Z,12.90
2019-05-25T11:01:59.344Z,12.60
2019-05-25T11:02:59.358Z,12.60
2019-05-25T11:03:59.335Z,12.20
2019-05-25T11:04:59.334Z,11.60
2019-05-25T11:05:59.346Z,12.60
2019-05-25T11:06:59.351Z,13.90
2019-05-25T11:07:59.339Z,12.30
2019-05-25T11:08:59.334Z,12.80
2019-05-25T11:09:59.376Z,13.10
2019-05-25T11:10:59.341Z,13.00
2019-05-25T11:11:59.347Z,14.00
2019-05-25T11:12:59.354Z,13.00
2019-05-25T11:13:59.321Z,13.60
2019-05-25T11:14:59.316Z,13.20
2019-05-25T11:15:59.312Z,12.90
2019-05-25T11:16:59.313Z,13.20
2019-05-25T11:17:59.351Z,12.50
2019-05-25T11:18:59.313Z,12.80
2019-05-25T11:19:59.347Z,12.40
2019-05-25T11:20:59.318Z,12.00
2019-05-25T11:21:59.316Z,12.70
2019-05-25T11:22:59.297Z,11.60
2019-05-25T11:23:59.306Z,12.40
2019-05-25T11:24:59.311Z,12.70
2019-05-25T11:25:59.309Z,11.40
2019-05-25T11:26:59.777Z,12.50
2019-05-25T11:27:59.303Z,11.50
2019-05-25T11:30:08.526Z,11.60
2019-05-25T11:30:59.301Z,11.20
2019-05-25T11:32:03.857Z,10.70
2019-05-25T11:32:59.282Z,12.00
2019-05-25T11:33:59.285Z,11.50
2019-05-25T11:34:59.291Z,12.00
2019-05-25T11:35:59.300Z,13.50
2019-05-25T11:36:59.289Z,11.50
2019-05-25T11:37:59.271Z,11.70
2019-05-25T11:38:59.272Z,11.00
2019-05-25T11:39:59.274Z,11.90
2019-05-25T11:40:59.270Z,12.00
2019-05-25T11:41:59.270Z,12.10
2019-05-25T11:42:59.279Z,12.30
2019-05-25T11:43:59.277Z,11.60
2019-05-25T11:44:59.273Z,11.80
2019-05-25T11:45:59.263Z,12.10
2019-05-25T11:46:59.279Z,12.20
2019-05-25T11:47:59.280Z,11.60
2019-05-25T11:48:59.261Z,13.40
2019-05-25T11:49:59.277Z,12.60
2019-05-25T11:50:59.282Z,11.80
2019-05-25T11:51:59.249Z,11.40
2019-05-25T11:52:59.271Z,18.70
2019-05-25T11:53:59.246Z,11.90
2019-05-25T11:54:59.456Z,11.50
2019-05-25T11:55:59.453Z,11.60
2019-05-25T11:56:59.240Z,11.80
2019-05-25T11:57:59.239Z,11.90
2019-05-25T11:58:59.242Z,11.70
2019-05-25T11:59:59.234Z,11.40
2019-05-25T12:00:59.281Z,11.80
2019-05-25T12:01:59.253Z,11.30
2019-05-25T12:02:59.234Z,12.30
2019-05-25T12:03:59.238Z,11.50
2019-05-25T12:04:59.232Z,12.40
2019-05-25T12:05:59.227Z,12.50
2019-05-25T12:06:59.231Z,12.40
2019-05-25T12:07:59.224Z,11.80
2019-05-25T12:08:59.228Z,12.50
2019-05-25T12:09:59.225Z,12.60
2019-05-25T12:10:59.224Z,12.40
2019-05-25T12:11:59.254Z,13.70
2019-05-25T12:12:59.212Z,12.30
2019-05-25T12:13:59.221Z,12.40
2019-05-25T12:14:59.241Z,11.30
2019-05-25T12:15:59.238Z,12.50
2019-05-25T12:16:59.231Z,11.50
2019-05-25T12:17:59.281Z,11.40
2019-05-25T12:18:59.215Z,12.70
2019-05-25T12:19:59.206Z,12.00
2019-05-25T12:20:59.209Z,11.90
2019-05-25T12:21:59.408Z,12.50
2019-05-25T12:22:59.214Z,13.70
2019-05-25T12:23:59.197Z,12.60
2019-05-25T12:24:59.398Z,12.60
2019-05-25T12:25:59.202Z,12.90
2019-05-25T12:26:59.402Z,13.20
2019-05-25T12:27:59.202Z,13.00
2019-05-25T12:28:59.187Z,14.00
2019-05-25T12:29:59.196Z,14.90
2019-05-25T12:30:59.192Z,14.50
2019-05-25T12:32:03.967Z,13.50
2019-05-25T12:32:59.186Z,12.30
2019-05-25T12:33:59.197Z,13.20
2019-05-25T12:34:59.180Z,13.10
2019-05-25T12:35:59.185Z,13.80
2019-05-25T12:36:59.187Z,13.60
2019-05-25T12:37:59.174Z,13.30
2019-05-25T12:38:59.184Z,12.50
2019-05-25T12:39:59.219Z,12.30
2019-05-25T12:40:59.172Z,13.40
2019-05-25T12:41:59.196Z,14.10
2019-05-25T12:42:59.200Z,12.70
2019-05-25T12:43:59.178Z,13.30
2019-05-25T12:44:59.176Z,13.40
2019-05-25T12:45:59.175Z,14.30
2019-05-25T12:46:59.163Z,12.30
2019-05-25T12:47:59.180Z,12.60
2019-05-25T12:48:59.159Z,13.30
2019-05-25T12:49:59.368Z,13.80
2019-05-25T12:50:59.166Z,13.50
2019-05-25T12:51:59.156Z,13.50
2019-05-25T12:52:59.151Z,14.10
2019-05-25T12:53:59.154Z,13.20
2019-05-25T12:54:59.155Z,12.80
2019-05-25T12:55:59.147Z,12.80
2019-05-25T12:57:02.586Z,13.60
2019-05-25T12:57:59.149Z,13.30
2019-05-25T12:58:59.238Z,13.70
2019-05-25T13:00:14.194Z,13.40
2019-05-25T13:00:59.143Z,13.30
2019-05-25T13:01:59.342Z,12.70